createdAt,value
2023-01-20T00:01:52.676Z,99.56
2023-01-20T00:04:19.404Z,99.36
2023-01-20T00:06:45.991Z,99.05
2023-01-20T00:09:14.551Z,98.58
2023-01-20T00:11:41.015Z,98.74
2023-01-20T00:14:07.472Z,99.21
2023-01-20T00:16:33.951Z,99.41
2023-01-20T00:19:00.396Z,99.18
2023-01-20T00:21:27.266Z,98.63
2023-01-20T00:23:53.740Z,99.15
2023-01-20T00:26:21.569Z,99.18
2023-01-20T00:28:48.593Z,99.05
2023-01-20T00:31:19.271Z,98.79
2023-01-20T00:33:46.413Z,99.51
2023-01-20T00:36:13.473Z,99.84
2023-01-20T00:38:40.135Z,100.00
2023-01-20T00:41:07.439Z,99.85
2023-01-20T00:43:34.242Z,99.60
2023-01-20T00:46:00.672Z,99.78
2023-01-20T00:48:27.106Z,99.59
2023-01-20T00:50:53.603Z,99.18
2023-01-20T00:53:20.054Z,99.17
2023-01-20T00:55:46.534Z,98.13
2023-01-20T00:58:12.968Z,98.80
2023-01-20T01:00:39.538Z,98.96
2023-01-20T01:03:06.068Z,98.81
2023-01-20T01:05:32.861Z,98.99
2023-01-20T01:07:59.356Z,98.78
2023-01-20T01:10:25.843Z,98.51
2023-01-20T01:12:52.265Z,98.46
2023-01-20T01:15:18.753Z,98.68
2023-01-20T01:17:45.604Z,98.11
2023-01-20T01:20:13.130Z,98.37
2023-01-20T01:22:39.734Z,98.66
2023-01-20T01:25:06.437Z,98.71
2023-01-20T01:27:32.896Z,98.76
2023-01-20T01:29:59.321Z,98.75
2023-01-20T01:32:25.827Z,98.98
2023-01-20T01:34:52.273Z,99.31
2023-01-20T01:37:18.887Z,99.03
2023-01-20T01:39:45.316Z,99.40
2023-01-20T01:42:13.080Z,98.97
2023-01-20T01:44:59.609Z,98.99
2023-01-20T01:47:26.036Z,98.91
2023-01-20T01:49:52.484Z,98.74
2023-01-20T01:52:20.905Z,99.20
2023-01-20T01:54:49.305Z,98.55
2023-01-20T01:57:15.749Z,99.10
2023-01-20T01:59:43.881Z,99.00
2023-01-20T02:02:10.403Z,98.78
2023-01-20T02:04:38.613Z,98.71
2023-01-20T02:07:08.355Z,98.46
2023-01-20T02:09:35.977Z,98.43
2023-01-20T02:12:04.064Z,98.25
2023-01-20T02:14:38.478Z,98.32
2023-01-20T02:17:11.019Z,98.30
2023-01-20T02:19:37.410Z,98.12
2023-01-20T02:22:09.975Z,98.10
2023-01-20T02:24:51.805Z,97.74
2023-01-20T02:27:24.003Z,97.83
2023-01-20T02:29:53.534Z,97.53
2023-01-20T02:32:27.305Z,97.42
2023-01-20T02:34:58.744Z,97.93
2023-01-20T02:37:27.727Z,97.62
2023-01-20T02:40:06.845Z,97.34
2023-01-20T02:42:44.279Z,98.00
2023-01-20T02:45:17.081Z,98.00
2023-01-20T02:47:51.760Z,97.59
2023-01-20T02:50:32.074Z,97.64
2023-01-20T02:52:59.795Z,97.18
2023-01-20T02:55:30.102Z,97.83
2023-01-20T02:58:00.644Z,97.72
2023-01-20T03:00:36.884Z,97.77
2023-01-20T03:03:05.759Z,97.58
2023-01-20T03:05:35.503Z,97.70
2023-01-20T03:08:05.467Z,97.33
2023-01-20T03:10:33.783Z,97.35
2023-01-20T03:13:10.040Z,97.40
2023-01-20T03:15:39.749Z,97.11
2023-01-20T03:18:06.188Z,96.75
2023-01-20T03:20:32.634Z,95.90
2023-01-20T03:22:59.087Z,95.88
2023-01-20T03:25:26.034Z,96.33
2023-01-20T03:27:52.490Z,96.38
2023-01-20T03:30:19.193Z,96.62
2023-01-20T03:32:48.126Z,96.22
2023-01-20T03:35:16.485Z,96.22
2023-01-20T03:37:44.243Z,96.81
2023-01-20T03:40:11.423Z,96.48
2023-01-20T03:42:52.785Z,96.50
2023-01-20T03:45:19.236Z,96.53
2023-01-20T03:48:04.406Z,96.62
2023-01-20T03:50:38.167Z,96.63
2023-01-20T03:53:04.637Z,95.98
2023-01-20T03:55:57.609Z,96.20
2023-01-20T03:58:27.685Z,96.69
2023-01-20T04:00:55.080Z,96.01
2023-01-20T04:03:25.449Z,95.75
2023-01-20T04:05:52.155Z,96.07
2023-01-20T04:08:20.973Z,96.33
2023-01-20T04:10:48.619Z,95.61
2023-01-20T04:13:15.629Z,96.56
2023-01-20T04:15:45.255Z,95.78
2023-01-20T04:18:11.734Z,95.77
2023-01-20T04:20:38.687Z,96.37
2023-01-20T04:23:06.592Z,96.26
2023-01-20T04:25:33.146Z,96.61
2023-01-20T04:27:59.625Z,96.74
2023-01-20T04:30:26.132Z,96.74
2023-01-20T04:32:52.637Z,96.24
2023-01-20T04:35:19.915Z,96.13
2023-01-20T04:37:46.362Z,96.83
2023-01-20T04:40:12.907Z,96.69
2023-01-20T04:42:39.436Z,96.77
2023-01-20T04:45:06.087Z,96.71
2023-01-20T04:47:33.749Z,96.72
2023-01-20T04:50:00.298Z,96.68
2023-01-20T04:52:26.802Z,96.87
2023-01-20T04:54:53.259Z,96.86
2023-01-20T04:57:19.769Z,96.70
2023-01-20T04:59:46.244Z,96.67
2023-01-20T05:02:12.732Z,97.08
2023-01-20T05:04:39.304Z,96.42
2023-01-20T05:07:05.715Z,96.49
2023-01-20T05:09:32.196Z,97.12
2023-01-20T05:11:58.618Z,96.96
2023-01-20T05:14:25.179Z,96.61
2023-01-20T05:16:51.672Z,97.17
2023-01-20T05:19:18.297Z,97.30
2023-01-20T05:21:44.872Z,96.87
2023-01-20T05:24:11.385Z,97.48
2023-01-20T05:26:37.860Z,97.51
2023-01-20T05:29:04.553Z,97.27
2023-01-20T05:31:31.393Z,97.06
2023-01-20T05:33:58.276Z,97.21
2023-01-20T05:36:24.818Z,97.61
2023-01-20T05:38:51.366Z,97.84
2023-01-20T05:41:17.833Z,97.80
2023-01-20T05:43:44.304Z,97.71
2023-01-20T05:46:10.865Z,97.51
2023-01-20T05:48:37.421Z,97.62
2023-01-20T05:51:03.901Z,96.87
2023-01-20T05:53:30.380Z,97.16
2023-01-20T05:56:00.919Z,97.13
2023-01-20T05:58:27.372Z,97.21
2023-01-20T06:00:53.837Z,97.69
2023-01-20T06:03:20.280Z,97.69
2023-01-20T06:05:49.390Z,97.75
2023-01-20T06:08:15.925Z,97.60
2023-01-20T06:10:42.357Z,97.64
2023-01-20T06:13:08.863Z,97.90
2023-01-20T06:15:35.276Z,97.84
2023-01-20T06:18:01.744Z,97.28
2023-01-20T06:20:28.188Z,97.23
2023-01-20T06:22:55.176Z,96.62
2023-01-20T06:25:21.612Z,96.88
2023-01-20T06:27:48.133Z,97.18
2023-01-20T06:30:14.722Z,97.84
2023-01-20T06:32:41.146Z,98.04
2023-01-20T06:35:09.889Z,97.79
2023-01-20T06:37:37.568Z,98.26
2023-01-20T06:40:04.314Z,98.52
2023-01-20T06:42:31.399Z,98.87
2023-01-20T06:44:57.837Z,99.34
2023-01-20T06:47:24.265Z,99.77
2023-01-20T06:49:50.753Z,99.77
2023-01-20T06:52:17.187Z,99.46
2023-01-20T06:54:43.909Z,99.41
2023-01-20T06:57:10.387Z,99.83
2023-01-20T06:59:36.841Z,100.00
2023-01-20T07:02:03.427Z,100.00
2023-01-20T07:04:29.908Z,100.00
2023-01-20T07:06:56.357Z,100.00
2023-01-20T07:09:22.797Z,100.00
2023-01-20T07:11:49.282Z,100.00
2023-01-20T07:14:15.719Z,100.00
2023-01-20T07:16:42.214Z,100.00
2023-01-20T07:19:08.680Z,100.00
2023-01-20T07:21:35.117Z,100.00
2023-01-20T07:24:01.927Z,100.00
2023-01-20T07:26:28.683Z,100.00
2023-01-20T07:28:55.221Z,100.00
2023-01-20T07:31:25.847Z,100.00
2023-01-20T07:33:54.186Z,100.00
2023-01-20T07:36:20.834Z,100.00
2023-01-20T07:38:48.596Z,100.00
2023-01-20T07:41:19.683Z,100.00
2023-01-20T07:43:47.375Z,100.00
2023-01-20T07:46:14.296Z,100.00
2023-01-20T07:48:41.097Z,100.00
2023-01-20T07:51:09.426Z,100.00
2023-01-20T07:53:37.172Z,100.00
2023-01-20T07:56:04.750Z,100.00
2023-01-20T07:58:31.261Z,100.00
2023-01-20T08:00:57.828Z,100.00
2023-01-20T08:03:27.443Z,100.00
2023-01-20T08:05:54.136Z,100.00
2023-01-20T08:08:20.624Z,100.00
2023-01-20T08:10:52.981Z,100.00
2023-01-20T08:13:19.506Z,100.00
2023-01-20T08:15:45.922Z,100.00
2023-01-20T08:18:12.365Z,100.00
2023-01-20T08:20:42.095Z,100.00
2023-01-20T08:23:08.529Z,100.00
2023-01-20T08:25:35.142Z,100.00
2023-01-20T08:28:01.587Z,100.00
2023-01-20T08:30:28.114Z,100.00
2023-01-20T08:32:54.642Z,100.00
2023-01-20T08:35:21.093Z,100.00
2023-01-20T08:37:47.578Z,100.00
2023-01-20T08:40:14.480Z,100.00
2023-01-20T08:42:40.943Z,100.00
2023-01-20T08:45:08.428Z,100.00
2023-01-20T08:47:39.472Z,100.00
2023-01-20T08:50:06.776Z,100.00
2023-01-20T08:52:34.066Z,100.00
2023-01-20T08:55:00.517Z,100.00
2023-01-20T08:57:27.070Z,100.00
2023-01-20T08:59:53.996Z,100.00
2023-01-20T09:02:20.498Z,100.00
2023-01-20T09:04:46.992Z,100.00
2023-01-20T09:07:13.413Z,100.00
2023-01-20T09:09:40.055Z,100.00
2023-01-20T09:12:06.560Z,100.00
2023-01-20T09:14:33.069Z,100.00
2023-01-20T09:17:01.374Z,100.00
2023-01-20T09:19:27.807Z,100.00
2023-01-20T09:21:54.323Z,100.00
2023-01-20T09:24:20.842Z,100.00
2023-01-20T09:26:47.831Z,100.00
2023-01-20T09:29:15.904Z,100.00
2023-01-20T09:31:49.271Z,100.00
2023-01-20T09:34:19.711Z,100.00
2023-01-20T09:36:49.340Z,100.00
2023-01-20T09:39:34.345Z,100.00
2023-01-20T09:42:23.670Z,100.00
2023-01-20T09:44:53.691Z,100.00
2023-01-20T09:47:31.564Z,100.00
2023-01-20T09:50:35.503Z,100.00
2023-01-20T09:53:25.710Z,100.00
2023-01-20T09:56:00.159Z,100.00
2023-01-20T09:58:45.481Z,100.00
2023-01-20T10:01:38.329Z,100.00
2023-01-20T10:04:19.305Z,100.00
2023-01-20T10:06:48.637Z,100.00
2023-01-20T10:09:22.226Z,100.00
2023-01-20T10:11:49.348Z,100.00
2023-01-20T10:14:21.567Z,100.00
2023-01-20T10:16:55.220Z,100.00
2023-01-20T10:19:29.031Z,100.00
2023-01-20T10:22:05.131Z,100.00
2023-01-20T10:24:35.477Z,100.00
2023-01-20T10:27:02.855Z,100.00
2023-01-20T10:29:29.327Z,100.00
2023-01-20T10:32:03.845Z,100.00
2023-01-20T10:34:37.100Z,100.00
2023-01-20T10:37:06.940Z,100.00
2023-01-20T10:39:33.462Z,100.00
2023-01-20T10:42:07.136Z,100.00
2023-01-20T10:44:35.110Z,100.00
2023-01-20T10:47:07.043Z,100.00
2023-01-20T10:49:36.437Z,100.00
2023-01-20T10:52:21.683Z,100.00
2023-01-20T10:55:00.392Z,100.00
2023-01-20T10:57:26.890Z,100.00
2023-01-20T10:59:53.302Z,100.00
2023-01-20T11:02:19.821Z,100.00
2023-01-20T11:04:49.399Z,100.00
2023-01-20T11:07:17.265Z,100.00
2023-01-20T11:09:44.283Z,100.00
2023-01-20T11:12:15.123Z,100.00
2023-01-20T11:14:41.586Z,100.00
2023-01-20T11:17:13.501Z,100.00
2023-01-20T11:19:47.034Z,100.00
2023-01-20T11:22:14.980Z,100.00
2023-01-20T11:24:42.979Z,100.00
2023-01-20T11:27:20.918Z,100.00
2023-01-20T11:29:52.997Z,100.00
2023-01-20T11:32:36.012Z,100.00
2023-01-20T11:35:18.322Z,100.00
2023-01-20T11:37:44.813Z,100.00
2023-01-20T11:40:24.758Z,100.00
2023-01-20T11:42:52.392Z,100.00
2023-01-20T11:45:30.333Z,100.00
2023-01-20T11:48:01.755Z,100.00
2023-01-20T11:50:30.776Z,100.00
2023-01-20T11:53:12.033Z,100.00
2023-01-20T11:55:53.299Z,100.00
2023-01-20T11:58:21.592Z,100.00
2023-01-20T12:00:49.559Z,100.00
2023-01-20T12:03:34.775Z,100.00
2023-01-20T12:06:17.676Z,100.00
2023-01-20T12:08:50.170Z,100.00
2023-01-20T12:11:27.293Z,100.00
2023-01-20T12:14:20.352Z,100.00
2023-01-20T12:17:09.897Z,100.00
2023-01-20T12:19:48.347Z,100.00
2023-01-20T12:22:20.855Z,100.00
2023-01-20T12:25:08.397Z,100.00
2023-01-20T12:27:42.744Z,100.00
2023-01-20T12:30:22.645Z,100.00
2023-01-20T12:32:50.934Z,100.00
2023-01-20T12:35:17.498Z,100.00
2023-01-20T12:37:49.840Z,100.00
2023-01-20T12:40:16.653Z,100.00
2023-01-20T12:42:49.305Z,100.00
2023-01-20T12:45:21.960Z,100.00
2023-01-20T12:48:04.147Z,100.00
2023-01-20T12:50:44.284Z,100.00
2023-01-20T12:53:16.664Z,100.00
2023-01-20T12:55:43.269Z,100.00
2023-01-20T12:58:18.869Z,100.00
2023-01-20T13:01:08.680Z,100.00
2023-01-20T13:03:55.176Z,100.00
2023-01-20T13:06:40.490Z,100.00
2023-01-20T13:09:06.929Z,100.00
2023-01-20T13:11:36.343Z,100.00
2023-01-20T13:14:15.370Z,100.00
2023-01-20T13:16:50.087Z,100.00
2023-01-20T13:19:19.922Z,100.00
2023-01-20T13:21:59.411Z,100.00
2023-01-20T13:24:34.262Z,100.00
2023-01-20T13:27:01.491Z,100.00
2023-01-20T13:29:37.069Z,100.00
2023-01-20T13:32:04.394Z,100.00
2023-01-20T13:34:32.472Z,100.00
2023-01-20T13:37:09.634Z,100.00
2023-01-20T13:39:40.552Z,100.00
2023-01-20T13:42:25.867Z,100.00
2023-01-20T13:45:11.123Z,100.00
2023-01-20T13:47:46.740Z,100.00
2023-01-20T13:50:23.945Z,100.00
2023-01-20T13:52:50.372Z,100.00
2023-01-20T13:55:27.593Z,100.00
2023-01-20T13:57:54.017Z,100.00
2023-01-20T14:00:20.521Z,100.00
2023-01-20T14:02:47.633Z,100.00
2023-01-20T14:05:21.406Z,100.00
2023-01-20T14:07:47.852Z,100.00
2023-01-20T14:10:14.513Z,100.00
2023-01-20T14:12:41.575Z,100.00
2023-01-20T14:15:22.539Z,100.00
2023-01-20T14:17:57.477Z,100.00
2023-01-20T14:20:25.391Z,100.00
2023-01-20T14:22:51.825Z,100.00
2023-01-20T14:25:26.130Z,100.00
2023-01-20T14:27:52.987Z,100.00
2023-01-20T14:30:23.900Z,100.00
2023-01-20T14:32:51.315Z,100.00
2023-01-20T14:35:21.801Z,100.00
2023-01-20T14:37:52.047Z,100.00
2023-01-20T14:40:30.961Z,100.00
2023-01-20T14:43:00.510Z,100.00
2023-01-20T14:45:28.795Z,100.00
2023-01-20T14:47:56.152Z,100.00
2023-01-20T14:50:23.014Z,100.00
2023-01-20T14:52:49.673Z,100.00
2023-01-20T14:55:29.089Z,100.00
2023-01-20T14:57:55.648Z,100.00
2023-01-20T15:00:23.714Z,100.00
2023-01-20T15:03:09.138Z,100.00
2023-01-20T15:05:37.966Z,100.00
2023-01-20T15:08:26.054Z,100.00
2023-01-20T15:11:12.856Z,100.00
2023-01-20T15:13:39.663Z,100.00
2023-01-20T15:16:07.375Z,100.00
2023-01-20T15:18:33.918Z,100.00
2023-01-20T15:21:17.014Z,100.00
2023-01-20T15:23:45.942Z,100.00
2023-01-20T15:26:24.053Z,100.00
2023-01-20T15:28:50.525Z,100.00
2023-01-20T15:31:17.437Z,100.00
2023-01-20T15:33:44.196Z,100.00
2023-01-20T15:36:16.562Z,100.00
2023-01-20T15:38:42.969Z,100.00
2023-01-20T15:41:12.651Z,100.00
2023-01-20T15:43:39.360Z,100.00
2023-01-20T15:46:09.740Z,100.00
2023-01-20T15:48:36.192Z,100.00
2023-01-20T15:51:02.663Z,100.00
2023-01-20T15:53:29.102Z,100.00
2023-01-20T15:55:55.576Z,100.00
2023-01-20T15:58:27.268Z,100.00
2023-01-20T16:00:55.441Z,100.00
2023-01-20T16:03:22.493Z,99.94
2023-01-20T16:05:49.864Z,100.00
2023-01-20T16:08:23.635Z,100.00
2023-01-20T16:10:50.578Z,100.00
2023-01-20T16:13:17.004Z,100.00
2023-01-20T16:15:43.633Z,100.00
2023-01-20T16:18:11.982Z,100.00
2023-01-20T16:20:38.501Z,100.00
2023-01-20T16:23:05.028Z,100.00
2023-01-20T16:25:32.134Z,99.97
2023-01-20T16:27:59.299Z,100.00
2023-01-20T16:30:26.028Z,100.00
2023-01-20T16:32:52.590Z,100.00
2023-01-20T16:35:19.766Z,100.00
2023-01-20T16:37:47.606Z,100.00
2023-01-20T16:40:16.240Z,100.00
2023-01-20T16:42:42.994Z,100.00
2023-01-20T16:45:29.861Z,100.00
2023-01-20T16:47:57.169Z,100.00
2023-01-20T16:50:23.651Z,100.00
2023-01-20T16:52:50.152Z,100.00
2023-01-20T16:55:16.616Z,100.00
2023-01-20T16:57:43.282Z,100.00
2023-01-20T17:00:10.181Z,100.00
2023-01-20T17:02:38.960Z,100.00
2023-01-20T17:05:07.225Z,100.00
2023-01-20T17:07:34.092Z,100.00
2023-01-20T17:10:00.601Z,100.00
2023-01-20T17:12:27.108Z,100.00
2023-01-20T17:14:53.528Z,100.00
2023-01-20T17:17:20.153Z,100.00
2023-01-20T17:19:47.228Z,100.00
2023-01-20T17:22:13.679Z,99.85
2023-01-20T17:24:40.195Z,100.00
2023-01-20T17:27:06.681Z,100.00
2023-01-20T17:29:33.100Z,99.85
2023-01-20T17:31:59.590Z,99.78
2023-01-20T17:34:26.126Z,99.46
2023-01-20T17:36:52.595Z,99.95
2023-01-20T17:39:19.048Z,99.88
2023-01-20T17:41:45.468Z,100.00
2023-01-20T17:44:12.448Z,100.00
2023-01-20T17:46:38.921Z,99.91
2023-01-20T17:49:06.914Z,99.62
2023-01-20T17:51:33.825Z,99.45
2023-01-20T17:54:03.379Z,99.09
2023-01-20T17:56:30.394Z,98.99
2023-01-20T17:58:56.911Z,99.32
2023-01-20T18:01:27.954Z,99.63
2023-01-20T18:03:55.350Z,99.44
2023-01-20T18:06:23.396Z,99.32
2023-01-20T18:08:51.093Z,99.32
2023-01-20T18:11:21.715Z,99.32
2023-01-20T18:13:49.128Z,99.36
2023-01-20T18:16:16.595Z,99.33
2023-01-20T18:18:44.087Z,99.13
2023-01-20T18:21:13.619Z,99.08
2023-01-20T18:23:40.402Z,98.74
2023-01-20T18:26:07.733Z,98.43
2023-01-20T18:28:34.710Z,99.03
2023-01-20T18:31:08.590Z,99.34
2023-01-20T18:33:38.567Z,98.86
2023-01-20T18:36:09.104Z,99.15
2023-01-20T18:38:35.980Z,99.39
2023-01-20T18:41:02.947Z,99.10
2023-01-20T18:43:30.145Z,99.25
2023-01-20T18:45:56.759Z,98.63
2023-01-20T18:48:25.300Z,98.18
2023-01-20T18:50:52.524Z,98.44
2023-01-20T18:53:19.056Z,98.59
2023-01-20T18:55:45.633Z,98.31
2023-01-20T18:58:16.319Z,98.08
2023-01-20T19:00:43.517Z,98.01
2023-01-20T19:03:10.166Z,97.60
2023-01-20T19:05:36.638Z,97.70
2023-01-20T19:08:03.116Z,97.68
2023-01-20T19:10:29.551Z,97.84
2023-01-20T19:12:56.002Z,98.11
2023-01-20T19:15:22.464Z,98.06
2023-01-20T19:17:50.487Z,97.92
2023-01-20T19:20:17.212Z,97.99
2023-01-20T19:22:43.800Z,97.89
2023-01-20T19:25:10.506Z,97.85
2023-01-20T19:27:36.963Z,98.02
2023-01-20T19:30:03.568Z,97.76
2023-01-20T19:32:30.032Z,97.28
2023-01-20T19:34:56.688Z,97.45
2023-01-20T19:37:23.350Z,97.78
2023-01-20T19:39:50.342Z,98.11
2023-01-20T19:42:16.950Z,98.08
2023-01-20T19:44:43.452Z,97.79
2023-01-20T19:47:09.907Z,97.35
2023-01-20T19:49:36.808Z,97.33
2023-01-20T19:52:03.311Z,98.46
2023-01-20T19:54:30.978Z,97.77
2023-01-20T19:56:57.537Z,98.00
2023-01-20T19:59:24.218Z,97.87
2023-01-20T20:01:50.923Z,97.98
2023-01-20T20:04:20.597Z,97.93
2023-01-20T20:06:48.819Z,97.56
2023-01-20T20:09:17.003Z,97.43
2023-01-20T20:11:43.849Z,97.46
2023-01-20T20:14:14.398Z,97.17
2023-01-20T20:16:41.086Z,97.32
2023-01-20T20:19:08.891Z,96.51
2023-01-20T20:21:35.534Z,96.98
2023-01-20T20:24:02.619Z,96.94
2023-01-20T20:26:30.849Z,96.57
2023-01-20T20:28:58.825Z,96.63
2023-01-20T20:31:29.541Z,97.18
2023-01-20T20:33:59.486Z,96.94
2023-01-20T20:36:28.410Z,97.29
2023-01-20T20:38:55.521Z,96.97
2023-01-20T20:41:22.453Z,96.98
2023-01-20T20:43:49.025Z,96.92
2023-01-20T20:46:16.357Z,97.10
2023-01-20T20:48:43.164Z,96.54
2023-01-20T20:51:11.695Z,96.41
2023-01-20T20:53:38.457Z,96.50
2023-01-20T20:56:09.175Z,97.25
2023-01-20T20:58:36.056Z,97.64
2023-01-20T21:01:08.511Z,97.70
2023-01-20T21:03:35.220Z,97.38
2023-01-20T21:06:04.638Z,97.38
2023-01-20T21:08:31.353Z,97.36
2023-01-20T21:11:04.881Z,97.64
2023-01-20T21:13:32.101Z,97.61
2023-01-20T21:16:03.842Z,97.98
2023-01-20T21:18:30.820Z,98.07
2023-01-20T21:20:58.506Z,97.74
2023-01-20T21:23:25.427Z,97.37
2023-01-20T21:25:52.031Z,97.56
2023-01-20T21:28:18.503Z,97.77
2023-01-20T21:30:45.441Z,97.93
2023-01-20T21:33:17.616Z,98.28
2023-01-20T21:35:45.159Z,98.12
2023-01-20T21:38:11.830Z,98.47
2023-01-20T21:40:38.396Z,98.56
2023-01-20T21:43:23.532Z,98.31
2023-01-20T21:45:53.601Z,98.01
2023-01-20T21:48:39.137Z,97.90
2023-01-20T21:51:23.974Z,97.15
2023-01-20T21:53:53.455Z,96.95
2023-01-20T21:56:20.192Z,97.29
2023-01-20T21:58:46.699Z,97.47
2023-01-20T22:01:13.228Z,97.32
2023-01-20T22:03:39.726Z,97.77
2023-01-20T22:06:06.375Z,97.63
2023-01-20T22:08:32.875Z,97.67
2023-01-20T22:11:01.730Z,97.72
2023-01-20T22:13:28.573Z,97.98
2023-01-20T22:15:55.215Z,97.84
2023-01-20T22:18:21.719Z,97.71
2023-01-20T22:20:48.210Z,98.13
2023-01-20T22:23:14.695Z,97.87
2023-01-20T22:25:41.135Z,97.71
2023-01-20T22:28:07.575Z,98.16
2023-01-20T22:30:34.059Z,98.39
2023-01-20T22:33:00.575Z,98.78
2023-01-20T22:35:27.023Z,98.73
2023-01-20T22:37:53.444Z,98.56
2023-01-20T22:40:19.886Z,98.70
2023-01-20T22:42:46.324Z,98.62
2023-01-20T22:45:12.734Z,98.56
2023-01-20T22:47:39.163Z,98.50
2023-01-20T22:50:07.902Z,98.06
2023-01-20T22:52:34.398Z,97.74
2023-01-20T22:55:00.834Z,98.11
2023-01-20T22:57:29.860Z,98.36
2023-01-20T22:59:56.309Z,98.23
2023-01-20T23:02:22.819Z,98.36
2023-01-20T23:04:49.327Z,98.40
2023-01-20T23:07:15.793Z,98.72
2023-01-20T23:09:42.362Z,98.69
2023-01-20T23:12:08.848Z,97.97
2023-01-20T23:14:54.075Z,98.47
2023-01-20T23:17:20.608Z,98.54
2023-01-20T23:19:47.081Z,97.59
2023-01-20T23:22:13.770Z,97.60
2023-01-20T23:24:40.230Z,97.78
2023-01-20T23:27:06.763Z,97.39
2023-01-20T23:29:33.387Z,97.78
2023-01-20T23:32:00.008Z,97.99
2023-01-20T23:34:26.546Z,97.48
2023-01-20T23:36:53.119Z,97.28
2023-01-20T23:39:19.653Z,97.36
2023-01-20T23:41:46.109Z,97.51
2023-01-20T23:44:12.701Z,97.57
2023-01-20T23:46:39.140Z,97.82
2023-01-20T23:49:05.729Z,97.45
2023-01-20T23:51:32.318Z,97.54
2023-01-20T23:53:58.742Z,97.39
2023-01-20T23:56:25.742Z,97.75
2023-01-20T23:58:52.482Z,97.15
